• Join FlightAware (Why Join?)
  • Login
  • US Flag 
10:51PM EDT


 

Airport Tracker/Info


-or-


 

Live Flight TrackerFlight Track Log ✈ N3229Q ✈ 20-May-2012 ✈ KCRQ - KOCN

Flight Track Log - Related Links

Times and Time Zones

All times are in EDT time to prevent confusion due to time zone crossing. See the N3229Q flight status page for this flight to view local times or setup timezone preferences in your user account.

Time Position Orientation Groundspeed Altitude Reporting Facility
EDT Latitude Longitude Course Direction KTS MPH feet Rate Location/Type
06:31PM 33.1333 -117.3500 320° Northwest 105 121 2,900  Level Southern California TRACON
06:32PM 33.1500 -117.3667 344° North 129 148 3,600 600 Climbing Southern California TRACON
06:33PM 33.2000 -117.3833 337° Northwest 139 160 4,200 420 Climbing Southern California TRACON
06:34PM 33.2333 -117.4000 320° Northwest 151 174 4,500 120 Climbing Southern California TRACON
06:35PM 33.2667 -117.4333 320° Northwest 167 192 4,500  Level Southern California TRACON
06:36PM 33.3000 -117.4667 320° Northwest 166 191 4,500  Level Southern California TRACON
06:37PM 33.3333 -117.5000 309° West 167 192 4,500 240 Level Southern California TRACON
06:38PM 33.3667 -117.5500 320° Northwest 149 171 5,000 420 Climbing Southern California TRACON
06:39PM 33.4000 -117.5833 301° West 143 165 5,300 300 Climbing Southern California TRACON
06:40PM 33.4167 -117.6167 320° Northwest 151 174 5,700 300 Climbing Southern California TRACON
06:41PM 33.4500 -117.6500 292° West 149 171 6,000 120 Climbing Southern California TRACON
06:42PM 33.4667 -117.7000 309° West 170 196 6,000  Level Southern California TRACON
06:43PM 33.5000 -117.7500 320° Northwest 173 199 6,000  Level Southern California TRACON
06:44PM 33.5333 -117.7833 331° Northwest 175 201 6,100  Climbing Southern California TRACON
06:45PM 33.5833 -117.8167 320° Northwest 175 201 6,100  Level Southern California TRACON
06:46PM 33.6167 -117.8500 320° Northwest 173 199 6,100  Level Southern California TRACON
06:47PM 33.6500 -117.8833 309° West 172 198 6,100  Level Southern California TRACON
06:48PM 33.6833 -117.9333 320° Northwest 170 196 6,100 -60 Level Southern California TRACON
06:49PM 33.7167 -117.9667 309° West 171 197 6,000 -300 Descending Southern California TRACON
06:50PM 33.7500 -118.0167 309° West 192 221 5,500 -480 Descending Southern California TRACON
06:51PM 33.7833 -118.0667 292° West 182 209 5,100 -420 Descending Southern California TRACON
06:52PM 33.8000 -118.1167 287° West 178 205 4,700 -420 Descending Southern California TRACON
06:53PM 33.8167 -118.1833 292° West 176 203 4,300 -300 Descending Southern California TRACON
06:54PM 33.8333 -118.2333 309° West 171 197 4,100 -180 Descending Southern California TRACON
06:55PM 33.8667 -118.2833 320° Northwest 162 186 4,000 -60 Descending Southern California TRACON
06:56PM 33.9000 -118.3167 292° West 163 188 4,000  Level Southern California TRACON
06:57PM 33.9167 -118.3667 331° Northwest 164 189 4,000  Level Southern California TRACON
06:58PM 33.9667 -118.4000 320° Northwest 163 188 4,000  Level Southern California TRACON
06:59PM 34.0000 -118.4333 337° Northwest 162 186 4,100  Climbing Southern California TRACON
07:00PM 34.0333 -118.4500 320° Northwest 163 188 4,100  Level Southern California TRACON
07:01PM 34.0667 -118.4833 338° Northwest 162 186 4,100 -60 Level Southern California TRACON
07:02PM 34.1000 -118.5000 331° Northwest 161 185 4,000 -60 Descending Southern California TRACON
07:03PM 34.1500 -118.5333 15° North 173 199 4,000 -360 Level Southern California TRACON
07:04PM 34.2000 -118.5167 90° East 177 204 3,300 -840 Descending Southern California TRACON
07:05PM 34.2000 -118.4667 90° East 158 182 2,400 -900 Descending Southern California TRACON
07:06PM 34.2000 -118.4167 153° Southeast 156 180 1,500  Descending Southern California TRACON
07:13PM 33.9521 -118.1615 172° South  Level FlightAware Approximate
07:14PM 33.9180 -118.1266 178° South  Level FlightAware Approximate
07:15PM 33.8839 -118.0917 186° South  Level FlightAware Approximate
07:16PM 33.8498 -118.0569 198° South  Level FlightAware Approximate
07:17PM 33.8157 -118.0220 214° Southwest  Level FlightAware Approximate
07:18PM 33.7816 -117.9872 233° Southwest  Level FlightAware Approximate
07:19PM 33.7474 -117.9525 251° West  Level FlightAware Approximate
07:20PM 33.7133 -117.9177 265° West  Level FlightAware Approximate
07:21PM 33.6791 -117.8830 276° West  Level FlightAware Approximate
07:22PM 33.6450 -117.8483 284° West  Level FlightAware Approximate
07:23PM 33.6108 -117.8137 290° West  Level FlightAware Approximate
07:24PM 33.5766 -117.7790 294° West  Level FlightAware Approximate
07:25PM 33.5424 -117.7444 297° West  Level FlightAware Approximate
07:26PM 33.5082 -117.7098 300° West  Level FlightAware Approximate
07:27PM 33.4740 -117.6753 302° West  Level FlightAware Approximate
07:28PM 33.4398 -117.6407 303° West  Level FlightAware Approximate
07:29PM 33.4056 -117.6062 305° West  Level FlightAware Approximate
07:30PM 33.3713 -117.5718 306° West  Level FlightAware Approximate
07:31PM 33.3371 -117.5373 307° West  Level FlightAware Approximate
07:32PM 33.3029 -117.5029 308° West  Level FlightAware Approximate
07:33PM 33.2705 -117.4662 309° West  Level FlightAware Approximate
08:31PM 33.7000 -118.1167 129° Southeast 154 177 3,600  Level Southern California TRACON
08:32PM 33.6667 -118.0667 140° Southeast 156 180 3,600  Level Southern California TRACON
08:33PM 33.6333 -118.0333 112° Southeast 158 182 3,600  Level Southern California TRACON
08:34PM 33.6167 -117.9833 140° Southeast 158 182 3,600  Level Southern California TRACON
08:35PM 33.5833 -117.9500 157° South 158 182 3,600  Level Southern California TRACON
08:36PM 33.5500 -117.9333 140° Southeast 157 181 3,600  Level Southern California TRACON
08:37PM 33.5167 -117.9000 129° Southeast 160 184 3,600  Level Southern California TRACON
08:38PM 33.4833 -117.8500 140° Southeast 161 185 3,600  Level Southern California TRACON
08:39PM 33.4500 -117.8167 140° Southeast 161 185 3,600  Level Southern California TRACON
08:40PM 33.4167 -117.7833 112° Southeast 159 183 3,600  Level Southern California TRACON
08:41PM 33.4000 -117.7333 140° Southeast 162 186 3,600  Level Southern California TRACON
08:42PM 33.3667 -117.7000 129° Southeast 164 189 3,600  Level Southern California TRACON
08:43PM 33.3333 -117.6500 112° Southeast 164 189 3,600  Level Southern California TRACON
08:44PM 33.3167 -117.6000 112° Southeast 165 190 3,600  Level Southern California TRACON
08:45PM 33.3000 -117.5500 129° Southeast 164 189 3,600  Level Southern California TRACON
08:46PM 33.2667 -117.5000 121° Southeast 161 185 3,600  Level Southern California TRACON
08:47PM 33.2500 -117.4667 107° East 160 184 3,600  Level Southern California TRACON
08:48PM 33.2333 -117.4000 90° East 161 185 3,600  Level Southern California TRACON
08:49PM 33.2333 -117.3500 90° East 155 178 3,600  Level Southern California TRACON
08:50PM 33.2333 -117.3000 90° East 143 165 3,700 -120 Climbing Southern California TRACON
08:51PM 33.2333 -117.2500 90° East 152 175 3,400 -60 Descending Southern California TRACON
08:52PM 33.2333 -117.2167 90° East 130 150 3,600 60 Climbing Southern California TRACON
08:53PM 33.2333 -117.1667 90° East 133 153 3,600  Level Southern California TRACON
08:54PM 33.2333 -117.1167 121° Southeast 133 153 3,600  Level Southern California TRACON
08:55PM 33.2167 -117.0833 157° South 138 159 3,600 -120 Level Southern California TRACON
08:56PM 33.1833 -117.0667 239° Southwest 137 158 3,400 -180 Descending Southern California TRACON
08:57PM 33.1667 -117.1000 239° Southwest 132 152 3,300 -240 Descending Southern California TRACON
08:58PM 33.1500 -117.1333 270° West 131 151 3,000 -480 Descending Southern California TRACON
08:59PM 33.1500 -117.1833 239° Southwest 112 129 2,300 -720 Descending Southern California TRACON
09:00PM 33.1333 -117.2167 270° West 110 127 1,500 -780 Descending Southern California TRACON
09:01PM 33.1333 -117.2500 270° West 97 112 800 -600 Descending Southern California TRACON
09:02PM 33.1333 -117.2667 270° West 86 99 400 -480 Descending Southern California TRACON